Time;durP1;ratioP1;P1;durP2;ratioP2;P2;SDS_P1;SDS_P2;PMS_P1;PMS_P2;Temp;Humidity;BMP_temperature;BMP_pressure;BME280_temperature;BME280_humidity;BME280_pressure;Samples;Min_cycle;Max_cycle;Signal;HPM_P1;HPM_P2
2023/05/25 00:01:17;;;;;;;14.80;9.73;;;;;;;;;;6324536;28;20219;-58
2023/05/25 00:04:19;;;;;;;18.63;10.10;;;;;;;;;;6329454;28;20188;-58
2023/05/25 00:07:20;;;;;;;15.90;9.93;;;;;;;;;;6340968;27;20219;-58
2023/05/25 00:10:21;;;;;;;15.27;10.27;;;;;;;;;;6351950;27;20188;-58
2023/05/25 00:13:22;;;;;;;16.03;9.70;;;;;;;;;;6355528;27;20251;-58
2023/05/25 00:16:23;;;;;;;14.30;9.73;;;;;;;;;;6332952;27;20191;-58
2023/05/25 00:19:24;;;;;;;13.00;8.77;;;;;;;;;;6340442;27;20206;-58
2023/05/25 00:22:27;;;;;;;11.00;8.53;;;;;;;;;;6333166;27;20191;-58
2023/05/25 00:25:29;;;;;;;17.47;9.60;;;;;;;;;;6329888;27;20180;-58
2023/05/25 00:28:30;;;;;;;16.83;9.07;;;;;;;;;;6320698;27;20244;-58
2023/05/25 00:31:35;;;;;;;20.73;9.93;;;;;;;;;;6327847;27;20194;-58
2023/05/25 00:34:36;;;;;;;15.23;9.20;;;;;;;;;;6330914;28;20195;-58
2023/05/25 00:37:37;;;;;;;12.83;9.20;;;;;;;;;;6335647;27;20187;-58
2023/05/25 00:40:39;;;;;;;14.10;8.73;;;;;;;;;;6344314;27;20297;-58
2023/05/25 00:43:40;;;;;;;13.07;9.27;;;;;;;;;;6325575;27;20191;-58
2023/05/25 00:46:47;;;;;;;16.17;9.10;;;;;;;;;;6338667;27;20197;-58
2023/05/25 00:49:49;;;;;;;14.70;9.43;;;;;;;;;;6351663;27;20187;-58
2023/05/25 00:52:50;;;;;;;13.47;8.70;;;;;;;;;;6354594;27;20183;-58
2023/05/25 00:55:58;;;;;;;13.33;8.77;;;;;;;;;;6332471;28;20198;-58
2023/05/25 00:59:03;;;;;;;10.67;8.70;;;;;;;;;;6348502;27;20278;-58
2023/05/25 01:02:05;;;;;;;12.27;8.80;;;;;;;;;;6338984;27;20244;-58
2023/05/25 01:05:08;;;;;;;12.37;8.53;;;;;;;;;;6327745;27;20278;-58
2023/05/25 01:08:11;;;;;;;14.70;9.70;;;;;;;;;;6342484;27;20212;-58
2023/05/25 01:11:13;;;;;;;14.57;9.37;;;;;;;;;;6356659;27;20184;-58
2023/05/25 01:14:17;;;;;;;15.07;9.67;;;;;;;;;;6348612;27;20194;-58
2023/05/25 01:17:19;;;;;;;15.33;9.80;;;;;;;;;;6351378;27;20187;-58
2023/05/25 01:20:20;;;;;;;10.20;8.23;;;;;;;;;;6350660;27;20216;-58
2023/05/25 01:23:27;;;;;;;11.47;8.30;;;;;;;;;;6330666;27;20592;-58
2023/05/25 01:26:30;;;;;;;16.20;10.27;;;;;;;;;;6351596;27;20185;-57
2023/05/25 01:29:33;;;;;;;17.50;9.93;;;;;;;;;;6342488;28;20236;-58
2023/05/25 01:32:36;;;;;;;12.10;8.93;;;;;;;;;;6337520;28;20318;-58
2023/05/25 01:35:38;;;;;;;11.37;7.73;;;;;;;;;;6321856;28;20200;-58
2023/05/25 01:38:39;;;;;;;9.60;8.50;;;;;;;;;;6343616;28;20217;-58
2023/05/25 01:41:40;;;;;;;15.10;9.23;;;;;;;;;;6341182;28;20205;-58
2023/05/25 01:44:42;;;;;;;13.80;9.20;;;;;;;;;;6313869;28;20256;-58
2023/05/25 01:47:55;;;;;;;19.33;9.80;;;;;;;;;;6347937;28;20187;-58
2023/05/25 01:50:56;;;;;;;11.43;8.70;;;;;;;;;;6337868;28;20282;-58
2023/05/25 01:53:59;;;;;;;14.70;9.17;;;;;;;;;;6337300;28;20188;-58
2023/05/25 01:57:01;;;;;;;15.00;8.43;;;;;;;;;;6344795;28;20196;-58
2023/05/25 02:00:03;;;;;;;13.93;8.27;;;;;;;;;;6310713;28;20212;-58
2023/05/25 02:03:04;;;;;;;12.00;7.70;;;;;;;;;;6324269;28;20266;-58
2023/05/25 02:06:05;;;;;;;11.47;8.83;;;;;;;;;;6321673;28;20187;-58
2023/05/25 02:09:06;;;;;;;19.00;9.17;;;;;;;;;;6325682;28;20191;-58
2023/05/25 02:12:07;;;;;;;13.23;7.90;;;;;;;;;;6326821;28;20240;-59
2023/05/25 02:15:09;;;;;;;14.93;8.03;;;;;;;;;;6315740;28;20237;-58
2023/05/25 02:18:12;;;;;;;18.33;9.73;;;;;;;;;;6313966;28;20194;-58
2023/05/25 02:21:13;;;;;;;13.97;8.80;;;;;;;;;;6328925;28;20212;-58
2023/05/25 02:24:14;;;;;;;11.63;8.27;;;;;;;;;;6315257;28;20188;-58
2023/05/25 02:27:15;;;;;;;11.77;7.87;;;;;;;;;;6321743;28;20184;-58
2023/05/25 02:30:16;;;;;;;9.73;8.37;;;;;;;;;;6327361;28;20257;-58
2023/05/25 02:33:18;;;;;;;9.80;8.50;;;;;;;;;;6333833;28;20268;-58
2023/05/25 02:36:19;;;;;;;10.77;7.93;;;;;;;;;;6321487;28;20200;-58
2023/05/25 02:39:21;;;;;;;12.30;8.27;;;;;;;;;;6327832;28;20193;-58
2023/05/25 02:42:22;;;;;;;16.50;8.57;;;;;;;;;;6309360;28;20313;-58
2023/05/25 02:45:23;;;;;;;15.27;8.77;;;;;;;;;;6335549;28;20198;-58
2023/05/25 02:48:24;;;;;;;12.17;8.40;;;;;;;;;;6330772;28;20194;-58
2023/05/25 02:51:25;;;;;;;10.83;7.63;;;;;;;;;;6332574;28;20207;-58
2023/05/25 02:54:26;;;;;;;13.53;8.07;;;;;;;;;;6314091;28;20279;-58
2023/05/25 02:57:28;;;;;;;11.83;7.63;;;;;;;;;;6332881;28;20183;-57
2023/05/25 03:00:29;;;;;;;11.93;7.90;;;;;;;;;;6322871;28;20233;-58
2023/05/25 03:03:30;;;;;;;13.90;8.07;;;;;;;;;;6339785;27;20773;-58
2023/05/25 03:06:32;;;;;;;13.03;8.47;;;;;;;;;;6331626;28;20241;-58
2023/05/25 03:09:33;;;;;;;12.70;7.10;;;;;;;;;;6327033;27;20232;-58
2023/05/25 03:12:34;;;;;;;15.73;7.40;;;;;;;;;;6333076;28;20230;-58
2023/05/25 03:15:35;;;;;;;10.10;7.23;;;;;;;;;;6321550;28;20195;-58
2023/05/25 03:18:36;;;;;;;10.77;7.20;;;;;;;;;;6322989;28;20275;-58
2023/05/25 03:21:37;;;;;;;13.93;7.33;;;;;;;;;;6315333;28;20210;-58
2023/05/25 03:24:40;;;;;;;11.57;7.43;;;;;;;;;;6334138;28;20180;-57
2023/05/25 03:27:41;;;;;;;13.07;7.80;;;;;;;;;;6353557;27;20235;-58
2023/05/25 03:30:42;;;;;;;11.03;7.63;;;;;;;;;;6329096;28;20183;-58
2023/05/25 03:33:43;;;;;;;12.00;8.43;;;;;;;;;;6340803;27;20187;-56
2023/05/25 03:36:46;;;;;;;14.00;8.10;;;;;;;;;;6339821;27;20239;-58
2023/05/25 03:39:47;;;;;;;9.80;7.40;;;;;;;;;;6327531;27;20306;-58
2023/05/25 03:42:48;;;;;;;13.30;7.97;;;;;;;;;;6334103;27;20176;-58
2023/05/25 03:45:49;;;;;;;10.23;7.20;;;;;;;;;;6335090;27;20195;-58
2023/05/25 03:48:50;;;;;;;12.73;7.50;;;;;;;;;;6328741;27;20191;-58
2023/05/25 03:51:51;;;;;;;7.83;7.03;;;;;;;;;;6329609;27;20183;-58
2023/05/25 03:54:52;;;;;;;11.53;7.17;;;;;;;;;;6332051;28;20203;-58
2023/05/25 03:57:53;;;;;;;7.47;6.50;;;;;;;;;;6329083;27;20195;-58
2023/05/25 04:00:55;;;;;;;14.70;8.50;;;;;;;;;;6328839;27;20207;-58
2023/05/25 04:03:56;;;;;;;14.67;8.30;;;;;;;;;;6334054;27;20187;-58
2023/05/25 04:06:57;;;;;;;9.60;8.03;;;;;;;;;;6328176;27;20304;-58
2023/05/25 04:09:58;;;;;;;13.60;8.83;;;;;;;;;;6329827;27;20198;-58
2023/05/25 04:12:59;;;;;;;17.27;8.80;;;;;;;;;;6332273;27;20195;-57
2023/05/25 04:16:00;;;;;;;13.30;8.20;;;;;;;;;;6330517;27;20209;-58
2023/05/25 04:19:01;;;;;;;11.57;7.93;;;;;;;;;;6341089;27;20194;-58
2023/05/25 04:22:03;;;;;;;14.27;8.43;;;;;;;;;;6332472;27;20219;-57
2023/05/25 04:25:07;;;;;;;9.23;7.30;;;;;;;;;;6331905;27;20270;-56
2023/05/25 04:28:08;;;;;;;14.47;7.83;;;;;;;;;;6326988;27;20352;-58
2023/05/25 04:31:11;;;;;;;16.17;9.70;;;;;;;;;;6340445;27;20263;-58
2023/05/25 04:34:13;;;;;;;11.40;8.80;;;;;;;;;;6320059;27;20196;-58
2023/05/25 04:37:16;;;;;;;16.47;7.97;;;;;;;;;;6336109;27;20191;-58
2023/05/25 04:40:17;;;;;;;16.70;9.87;;;;;;;;;;6342407;27;20302;-58
2023/05/25 04:43:19;;;;;;;16.53;9.03;;;;;;;;;;6325138;27;20302;-57
2023/05/25 04:46:20;;;;;;;15.83;8.63;;;;;;;;;;6316821;27;20192;-61
2023/05/25 04:49:21;;;;;;;9.10;8.17;;;;;;;;;;6319280;28;20208;-61
2023/05/25 04:52:22;;;;;;;15.23;9.53;;;;;;;;;;6351636;27;20244;-58
2023/05/25 04:55:23;;;;;;;13.80;8.27;;;;;;;;;;6321419;27;20244;-58
2023/05/25 04:58:24;;;;;;;13.83;9.47;;;;;;;;;;6317706;27;20227;-56
2023/05/25 05:01:25;;;;;;;18.10;9.70;;;;;;;;;;6326831;27;20282;-58
2023/05/25 05:04:26;;;;;;;14.37;7.77;;;;;;;;;;6342234;27;20183;-58
2023/05/25 05:07:27;;;;;;;15.27;9.57;;;;;;;;;;6327581;27;20290;-58
2023/05/25 05:10:29;;;;;;;15.30;9.37;;;;;;;;;;6351575;27;20336;-58
2023/05/25 05:13:30;;;;;;;15.83;10.30;;;;;;;;;;6358759;27;20195;-57
2023/05/25 05:16:33;;;;;;;15.90;9.00;;;;;;;;;;6350521;27;20195;-58
2023/05/25 05:19:34;;;;;;;14.13;10.30;;;;;;;;;;6342698;27;20206;-58
2023/05/25 05:22:36;;;;;;;17.80;11.10;;;;;;;;;;6336645;27;20188;-58
2023/05/25 05:25:37;;;;;;;14.20;10.27;;;;;;;;;;6351431;27;20285;-58
2023/05/25 05:28:38;;;;;;;16.43;10.27;;;;;;;;;;6336208;27;20253;-58
2023/05/25 05:31:41;;;;;;;17.07;11.97;;;;;;;;;;6318892;28;20216;-58
2023/05/25 05:34:42;;;;;;;20.43;11.50;;;;;;;;;;6348054;27;20187;-59
2023/05/25 05:37:43;;;;;;;16.77;11.03;;;;;;;;;;6341877;28;20187;-58
2023/05/25 05:40:44;;;;;;;19.50;10.93;;;;;;;;;;6352960;27;20208;-58
2023/05/25 05:43:45;;;;;;;15.43;9.90;;;;;;;;;;6335095;28;20183;-58
2023/05/25 05:46:46;;;;;;;13.33;9.20;;;;;;;;;;6327844;28;20186;-58
2023/05/25 05:49:47;;;;;;;15.07;9.90;;;;;;;;;;6317239;27;20218;-59
2023/05/25 05:52:48;;;;;;;17.70;11.07;;;;;;;;;;6328497;28;20286;-59
2023/05/25 05:55:53;;;;;;;20.93;12.40;;;;;;;;;;6327653;28;20222;-59
2023/05/25 05:58:54;;;;;;;17.97;11.97;;;;;;;;;;6325503;27;20191;-58
2023/05/25 06:01:55;;;;;;;17.63;11.30;;;;;;;;;;6329980;28;20225;-58
2023/05/25 06:04:56;;;;;;;22.93;13.00;;;;;;;;;;6349997;27;20191;-59
2023/05/25 06:07:57;;;;;;;21.23;12.37;;;;;;;;;;6328373;28;20226;-59
2023/05/25 06:10:58;;;;;;;19.77;12.17;;;;;;;;;;6316153;28;20195;-58
2023/05/25 06:13:59;;;;;;;23.47;12.37;;;;;;;;;;6332384;28;20191;-58
2023/05/25 06:17:00;;;;;;;18.37;11.57;;;;;;;;;;6346591;27;20279;-59
2023/05/25 06:20:01;;;;;;;21.17;12.57;;;;;;;;;;6330407;28;20216;-59
2023/05/25 06:23:02;;;;;;;20.20;12.43;;;;;;;;;;6332657;27;20180;-59
2023/05/25 06:26:04;;;;;;;20.57;12.30;;;;;;;;;;6342112;28;20281;-58
2023/05/25 06:29:05;;;;;;;17.00;12.13;;;;;;;;;;6343486;27;20230;-58
2023/05/25 06:32:07;;;;;;;17.63;11.80;;;;;;;;;;6319017;27;20199;-58
2023/05/25 06:35:08;;;;;;;15.30;10.80;;;;;;;;;;6320168;27;20292;-59
2023/05/25 06:38:11;;;;;;;15.23;10.90;;;;;;;;;;6330492;27;20227;-58
2023/05/25 06:41:13;;;;;;;16.03;10.93;;;;;;;;;;6336695;27;20288;-58
2023/05/25 06:44:15;;;;;;;15.03;11.70;;;;;;;;;;6344472;27;20179;-59
2023/05/25 06:47:16;;;;;;;13.33;10.10;;;;;;;;;;6336997;27;20183;-59
2023/05/25 06:50:17;;;;;;;13.17;10.90;;;;;;;;;;6329217;27;20201;-59
2023/05/25 06:53:18;;;;;;;12.80;9.83;;;;;;;;;;6333715;28;20551;-58
2023/05/25 06:56:19;;;;;;;14.03;12.23;;;;;;;;;;6348385;27;20251;-58
2023/05/25 06:59:20;;;;;;;17.10;12.80;;;;;;;;;;6341381;27;20193;-59
2023/05/25 07:02:21;;;;;;;17.53;13.77;;;;;;;;;;6352869;27;20191;-58
2023/05/25 07:05:22;;;;;;;18.03;12.57;;;;;;;;;;6330676;27;20190;-58
2023/05/25 07:08:23;;;;;;;14.27;12.47;;;;;;;;;;6317077;27;20278;-59
2023/05/25 07:11:24;;;;;;;14.97;11.43;;;;;;;;;;6326644;27;20195;-59
2023/05/25 07:14:25;;;;;;;13.70;10.83;;;;;;;;;;6329338;28;20196;-58
2023/05/25 07:17:27;;;;;;;13.93;9.63;;;;;;;;;;6335127;27;20201;-59
2023/05/25 07:20:28;;;;;;;13.20;10.80;;;;;;;;;;6320682;27;20247;-58
2023/05/25 07:23:29;;;;;;;13.43;11.47;;;;;;;;;;6335511;27;20214;-59
2023/05/25 07:26:32;;;;;;;13.43;10.83;;;;;;;;;;6326208;27;20188;-58
2023/05/25 07:29:33;;;;;;;14.27;11.97;;;;;;;;;;6343992;28;20228;-58
2023/05/25 07:32:34;;;;;;;13.07;10.10;;;;;;;;;;6336989;27;20219;-58
2023/05/25 07:35:35;;;;;;;13.73;10.87;;;;;;;;;;6323334;27;20195;-58
2023/05/25 07:38:36;;;;;;;16.23;9.90;;;;;;;;;;6339249;27;20195;-59
2023/05/25 07:41:38;;;;;;;14.03;11.03;;;;;;;;;;6347375;27;20289;-58
2023/05/25 07:44:39;;;;;;;13.40;11.37;;;;;;;;;;6345749;27;20183;-59
2023/05/25 07:47:40;;;;;;;15.60;12.27;;;;;;;;;;6340150;27;20199;-59
2023/05/25 07:50:41;;;;;;;14.53;11.83;;;;;;;;;;6339385;27;20206;-58
2023/05/25 07:53:42;;;;;;;17.93;12.80;;;;;;;;;;6321405;27;20257;-58
2023/05/25 07:56:43;;;;;;;16.00;12.67;;;;;;;;;;6338716;27;20282;-59
2023/05/25 07:59:44;;;;;;;14.67;11.70;;;;;;;;;;6342559;27;20351;-58
2023/05/25 08:02:45;;;;;;;13.60;12.03;;;;;;;;;;6327745;28;20215;-59
2023/05/25 08:05:46;;;;;;;13.37;11.77;;;;;;;;;;6331512;27;20207;-58
2023/05/25 08:08:48;;;;;;;16.20;11.60;;;;;;;;;;6332639;27;20202;-58
2023/05/25 08:11:49;;;;;;;14.70;11.87;;;;;;;;;;6332146;27;20206;-58
2023/05/25 08:14:50;;;;;;;16.53;13.57;;;;;;;;;;6330222;28;20222;-58
2023/05/25 08:17:52;;;;;;;14.43;12.93;;;;;;;;;;6326424;27;20199;-59
2023/05/25 08:20:53;;;;;;;14.40;12.97;;;;;;;;;;6350224;27;20283;-58
2023/05/25 08:23:54;;;;;;;16.47;13.47;;;;;;;;;;6331085;27;20192;-58
2023/05/25 08:26:55;;;;;;;15.60;12.20;;;;;;;;;;6321506;27;20206;-58
2023/05/25 08:29:56;;;;;;;14.83;11.77;;;;;;;;;;6337382;27;20238;-59
2023/05/25 08:32:57;;;;;;;11.90;10.50;;;;;;;;;;6331898;27;20198;-59
2023/05/25 08:35:59;;;;;;;14.57;10.73;;;;;;;;;;6335404;27;20242;-58
2023/05/25 08:39:00;;;;;;;13.70;11.30;;;;;;;;;;6327955;27;20195;-58
2023/05/25 08:42:01;;;;;;;11.70;10.60;;;;;;;;;;6313396;28;20222;-58
2023/05/25 08:45:02;;;;;;;13.37;11.33;;;;;;;;;;6314008;28;20191;-59
2023/05/25 08:48:03;;;;;;;12.17;10.90;;;;;;;;;;6313647;27;20191;-58
2023/05/25 08:51:07;;;;;;;13.47;11.90;;;;;;;;;;6345550;27;20194;-58
2023/05/25 08:54:11;;;;;;;12.43;10.17;;;;;;;;;;6334341;28;20184;-59
2023/05/25 08:57:31;;;;;;;12.83;10.50;;;;;;;;;;6335982;27;20296;-59
2023/05/25 09:00:34;;;;;;;12.47;11.23;;;;;;;;;;6355472;27;20216;-59
2023/05/25 09:03:35;;;;;;;11.53;10.33;;;;;;;;;;6328439;28;20180;-58
2023/05/25 09:06:37;;;;;;;11.10;10.00;;;;;;;;;;6315848;28;20199;-58
2023/05/25 09:09:39;;;;;;;11.40;10.40;;;;;;;;;;6344382;27;20191;-58
2023/05/25 09:12:41;;;;;;;11.67;10.43;;;;;;;;;;6353205;27;20239;-58
2023/05/25 09:15:42;;;;;;;10.60;9.60;;;;;;;;;;6340747;27;20226;-59
2023/05/25 09:18:43;;;;;;;10.13;9.23;;;;;;;;;;6328366;27;20217;-58
2023/05/25 09:21:44;;;;;;;10.37;9.43;;;;;;;;;;6327212;27;20389;-59
2023/05/25 09:24:45;;;;;;;10.03;9.17;;;;;;;;;;6317271;27;20188;-58
2023/05/25 09:27:46;;;;;;;10.90;9.40;;;;;;;;;;6328832;27;20234;-59
2023/05/25 09:30:47;;;;;;;10.30;9.37;;;;;;;;;;6341972;27;20198;-59
2023/05/25 09:33:48;;;;;;;9.67;8.83;;;;;;;;;;6339073;27;20190;-58
2023/05/25 09:36:50;;;;;;;10.50;9.40;;;;;;;;;;6322372;28;20227;-59
2023/05/25 09:39:51;;;;;;;9.13;8.30;;;;;;;;;;6327533;27;20223;-59
2023/05/25 09:42:52;;;;;;;9.33;8.53;;;;;;;;;;6324469;28;20199;-58
2023/05/25 09:45:53;;;;;;;8.93;8.23;;;;;;;;;;6353190;27;20187;-59
2023/05/25 09:48:56;;;;;;;8.80;8.10;;;;;;;;;;6342161;27;20182;-59
2023/05/25 09:51:57;;;;;;;9.90;9.00;;;;;;;;;;6330905;28;20189;-59
2023/05/25 09:54:58;;;;;;;9.83;8.83;;;;;;;;;;6323287;28;20194;-58
2023/05/25 09:58:00;;;;;;;10.13;9.13;;;;;;;;;;6328081;28;20211;-59
2023/05/25 10:01:01;;;;;;;9.30;8.53;;;;;;;;;;6351074;27;20214;-59
2023/05/25 10:04:02;;;;;;;8.97;8.27;;;;;;;;;;6342740;27;20221;-58
2023/05/25 10:07:03;;;;;;;9.80;9.00;;;;;;;;;;6341344;27;20182;-59
2023/05/25 10:10:09;;;;;;;9.40;8.30;;;;;;;;;;6360569;27;20191;-59
2023/05/25 10:13:10;;;;;;;8.37;7.57;;;;;;;;;;6342392;28;20252;-58
2023/05/25 10:16:17;;;;;;;9.37;8.30;;;;;;;;;;6342291;27;20187;-59
2023/05/25 10:19:20;;;;;;;8.30;7.60;;;;;;;;;;6350640;27;20209;-59
2023/05/25 10:22:40;;;;;;;9.03;8.33;;;;;;;;;;6347948;27;20236;-59
2023/05/25 10:25:45;;;;;;;8.57;7.70;;;;;;;;;;6336998;27;20206;-59
2023/05/25 10:28:47;;;;;;;8.90;8.10;;;;;;;;;;6332144;27;20242;-59
2023/05/25 10:31:48;;;;;;;8.83;8.03;;;;;;;;;;6349333;27;20198;-59
2023/05/25 10:34:51;;;;;;;8.10;7.40;;;;;;;;;;6329490;27;20200;-59
2023/05/25 10:37:52;;;;;;;7.77;7.10;;;;;;;;;;6350486;27;20186;-59
2023/05/25 10:40:54;;;;;;;8.60;7.77;;;;;;;;;;6346834;27;20207;-59
2023/05/25 10:43:55;;;;;;;7.87;7.17;;;;;;;;;;6333443;27;20191;-59
2023/05/25 10:46:58;;;;;;;8.30;7.60;;;;;;;;;;6352323;27;20191;-59
2023/05/25 10:50:01;;;;;;;8.80;8.07;;;;;;;;;;6347747;27;20252;-59
2023/05/25 10:53:05;;;;;;;8.13;7.40;;;;;;;;;;6341681;27;20256;-59
2023/05/25 10:56:12;;;;;;;7.87;7.17;;;;;;;;;;6352625;27;20294;-59
2023/05/25 10:59:13;;;;;;;8.30;7.53;;;;;;;;;;6341501;27;20195;-58
2023/05/25 11:02:15;;;;;;;8.17;7.13;;;;;;;;;;6332747;27;20259;-59
2023/05/25 11:05:25;;;;;;;7.80;7.17;;;;;;;;;;6333016;27;20234;-59
2023/05/25 11:08:46;;;;;;;6.23;5.73;;;;;;;;;;6344133;27;20190;-58
2023/05/25 11:11:48;;;;;;;7.93;7.07;;;;;;;;;;6356181;27;20198;-58
2023/05/25 11:15:22;;;;;;;7.60;7.00;;;;;;;;;;6356882;27;20190;-59
2023/05/25 11:18:23;;;;;;;6.77;6.17;;;;;;;;;;6292852;27;20231;-59
2023/05/25 11:21:24;;;;;;;7.80;7.10;;;;;;;;;;6334306;27;20236;-58
2023/05/25 11:24:25;;;;;;;9.63;6.73;;;;;;;;;;6351502;27;20190;-59
2023/05/25 11:27:30;;;;;;;7.47;6.77;;;;;;;;;;6334318;27;20236;-59
2023/05/25 11:30:31;;;;;;;7.23;6.53;;;;;;;;;;6346915;27;20241;-58
2023/05/25 11:33:32;;;;;;;7.53;6.67;;;;;;;;;;6332542;28;20280;-59
2023/05/25 11:36:36;;;;;;;7.23;6.53;;;;;;;;;;6339093;27;20219;-59
2023/05/25 11:39:37;;;;;;;6.33;5.73;;;;;;;;;;6339572;27;20287;-59
2023/05/25 11:42:39;;;;;;;7.00;6.40;;;;;;;;;;6339341;27;20195;-59
2023/05/25 11:45:40;;;;;;;7.53;6.33;;;;;;;;;;6330654;27;20194;-59
2023/05/25 11:49:00;;;;;;;8.37;6.73;;;;;;;;;;6327622;27;20215;-59
2023/05/25 11:52:05;;;;;;;6.50;5.90;;;;;;;;;;6341917;27;20270;-59
2023/05/25 11:55:11;;;;;;;5.37;4.83;;;;;;;;;;6342198;28;20196;-59
2023/05/25 11:58:12;;;;;;;6.10;5.60;;;;;;;;;;6354207;27;20194;-57
2023/05/25 12:01:18;;;;;;;5.30;4.80;;;;;;;;;;6340314;27;20217;-58
2023/05/25 12:04:19;;;;;;;4.63;4.23;;;;;;;;;;6339260;27;20183;-58
2023/05/25 12:07:20;;;;;;;5.80;4.67;;;;;;;;;;6336204;27;20183;-58
2023/05/25 12:10:21;;;;;;;4.73;4.33;;;;;;;;;;6350892;27;20191;-58
2023/05/25 12:13:23;;;;;;;5.10;4.10;;;;;;;;;;6319201;28;20199;-58
2023/05/25 12:16:24;;;;;;;4.10;3.80;;;;;;;;;;6325082;28;20209;-59
2023/05/25 12:19:25;;;;;;;6.80;4.10;;;;;;;;;;6356880;27;20193;-59
2023/05/25 12:22:26;;;;;;;5.23;4.30;;;;;;;;;;6327585;27;20336;-58
2023/05/25 12:25:27;;;;;;;4.10;3.77;;;;;;;;;;6326993;28;20190;-58
2023/05/25 12:28:28;;;;;;;4.68;4.28;;;;;;;;;;6333168;27;20231;-59
2023/05/25 12:31:33;;;;;;;3.97;3.65;;;;;;;;;;6322640;28;20183;-59
2023/05/25 12:34:34;;;;;;;4.30;3.90;;;;;;;;;;6354007;27;20191;-59
2023/05/25 12:37:35;;;;;;;5.43;3.58;;;;;;;;;;6317462;27;20197;-59
2023/05/25 12:40:36;;;;;;;4.03;3.72;;;;;;;;;;6333525;27;20223;-59
2023/05/25 12:43:42;;;;;;;4.00;3.58;;;;;;;;;;6349239;28;20190;-56
2023/05/25 12:46:43;;;;;;;4.25;3.83;;;;;;;;;;6349659;27;20238;-57
2023/05/25 12:49:45;;;;;;;4.05;3.65;;;;;;;;;;6355732;27;20226;-57
2023/05/25 12:52:47;;;;;;;5.25;4.53;;;;;;;;;;6351448;27;20257;-58
2023/05/25 12:55:48;;;;;;;4.40;4.00;;;;;;;;;;6352564;27;20187;-58
2023/05/25 12:58:49;;;;;;;5.15;3.55;;;;;;;;;;6322445;27;20179;-58
2023/05/25 13:01:51;;;;;;;3.70;3.40;;;;;;;;;;6333661;27;20244;-58
2023/05/25 13:04:52;;;;;;;3.75;3.40;;;;;;;;;;6321735;27;20187;-58
2023/05/25 13:07:54;;;;;;;3.35;3.05;;;;;;;;;;6353297;27;20202;-58
2023/05/25 13:10:55;;;;;;;4.43;3.28;;;;;;;;;;6338986;27;20205;-58
2023/05/25 13:13:56;;;;;;;3.70;3.40;;;;;;;;;;6335679;27;20218;-58
2023/05/25 13:16:57;;;;;;;3.95;3.60;;;;;;;;;;6342949;27;20183;-58
2023/05/25 13:19:58;;;;;;;3.92;3.40;;;;;;;;;;6335848;27;20301;-58
2023/05/25 13:22:59;;;;;;;3.75;3.40;;;;;;;;;;6358423;27;20281;-57
2023/05/25 13:26:00;;;;;;;3.67;3.38;;;;;;;;;;6353136;27;20187;-56
2023/05/25 13:29:01;;;;;;;3.67;3.28;;;;;;;;;;6321008;27;20234;-57
2023/05/25 13:32:02;;;;;;;3.97;3.65;;;;;;;;;;6328202;27;20207;-57
2023/05/25 13:35:05;;;;;;;7.32;3.40;;;;;;;;;;6323795;27;20202;-57
2023/05/25 13:38:07;;;;;;;5.10;3.75;;;;;;;;;;6321641;27;20188;-57
2023/05/25 13:41:08;;;;;;;4.78;3.58;;;;;;;;;;6326082;27;20186;-57
2023/05/25 13:44:11;;;;;;;3.58;3.25;;;;;;;;;;6332204;28;20199;-57
2023/05/25 13:47:12;;;;;;;3.92;3.53;;;;;;;;;;6320679;28;20240;-57
2023/05/25 13:50:13;;;;;;;4.38;3.72;;;;;;;;;;6325859;28;20210;-57
2023/05/25 13:53:14;;;;;;;3.78;3.42;;;;;;;;;;6331226;27;20263;-57
2023/05/25 13:56:15;;;;;;;5.43;3.50;;;;;;;;;;6331913;27;20187;-57
2023/05/25 13:59:16;;;;;;;6.65;3.83;;;;;;;;;;6319156;28;20230;-57
2023/05/25 14:02:17;;;;;;;4.43;3.60;;;;;;;;;;6345718;27;20198;-57
2023/05/25 14:05:18;;;;;;;8.07;3.97;;;;;;;;;;6328778;28;20190;-57
2023/05/25 14:08:20;;;;;;;4.00;3.65;;;;;;;;;;6329789;28;20199;-57
2023/05/25 14:11:21;;;;;;;5.65;3.45;;;;;;;;;;6326158;28;20222;-58
2023/05/25 14:14:22;;;;;;;4.32;4.03;;;;;;;;;;6323507;28;20236;-57
2023/05/25 14:17:23;;;;;;;8.73;4.10;;;;;;;;;;6323673;28;20183;-57
2023/05/25 14:20:25;;;;;;;4.97;4.10;;;35.70;37.20;;;;;;6340289;28;20183;-59
2023/05/25 14:23:26;;;;;;;3.80;3.50;;;;;;;;;;6316148;28;20180;-57
2023/05/25 14:26:26;;;;;;;4.33;3.93;;;33.90;39.00;;;;;;6357239;27;20273;-56
2023/05/25 14:29:27;;;;;;;10.17;4.43;;;;;;;;;;6305771;28;20218;-56
2023/05/25 14:32:28;;;;;;;4.90;4.40;;;32.90;41.20;;;;;;6326624;28;20219;-57
2023/05/25 14:35:29;;;;;;;4.67;3.93;;;32.20;43.10;;;;;;6316294;27;20175;-57
2023/05/25 14:38:31;;;;;;;4.40;3.97;;;31.60;42.40;;;;;;6317664;27;20274;-57
2023/05/25 14:41:32;;;;;;;4.50;4.20;;;;;;;;;;6317353;27;20233;-58
2023/05/25 14:44:33;;;;;;;4.77;4.47;;;;;;;;;;6333307;27;20196;-58
2023/05/25 14:47:34;;;;;;;4.83;4.37;;;;;;;;;;6341676;27;20242;-58
2023/05/25 14:50:35;;;;;;;5.40;4.90;;;;;;;;;;6322467;27;20259;-57
2023/05/25 14:53:36;;;;;;;5.10;4.50;;;;;;;;;;6326544;27;20257;-58
2023/05/25 14:56:37;;;;;;;5.30;4.33;;;;;;;;;;6335780;28;20196;-58
2023/05/25 14:59:38;;;;;;;5.73;4.97;;;;;;;;;;6341351;27;20197;-58
2023/05/25 15:02:39;;;;;;;5.77;4.67;;;;;;;;;;6340009;27;20208;-58
2023/05/25 15:05:40;;;;;;;6.10;4.60;;;;;;;;;;6336539;27;20274;-58
2023/05/25 15:08:41;;;;;;;5.63;4.60;;;;;;;;;;6343018;27;20307;-58
2023/05/25 15:11:43;;;;;;;4.80;4.40;;;;;;;;;;6327159;27;20208;-58
2023/05/25 15:14:44;;;;;;;6.90;4.43;;;;;;;;;;6335360;27;20198;-60
2023/05/25 15:17:45;;;;;;;4.83;4.27;;;;;;;;;;6329330;27;20196;-59
2023/05/25 15:20:46;;;;;;;4.60;4.20;;;;;;;;;;6331274;27;20202;-57
2023/05/25 15:23:47;;;;;;;5.17;4.30;;;;;;;;;;6337596;27;20198;-57
2023/05/25 15:26:48;;;;;;;8.00;4.80;;;;;;;;;;6342819;27;20182;-58
2023/05/25 15:29:49;;;;;;;5.03;4.63;;;;;;;;;;6336955;27;20236;-58
2023/05/25 15:32:50;;;;;;;4.40;4.00;;;;;;;;;;6334965;27;20271;-58
2023/05/25 15:35:51;;;;;;;5.00;4.50;;;;;;;;;;6333067;27;20188;-57
2023/05/25 15:38:52;;;;;;;4.60;4.20;;;;;;;;;;6340466;27;20266;-57
2023/05/25 15:41:53;;;;;;;4.47;4.07;;;;;;;;;;6322352;28;20200;-58
2023/05/25 15:44:54;;;;;;;4.53;4.13;;;;;;;;;;6318359;27;20192;-58
2023/05/25 15:47:55;;;;;;;5.57;5.07;;;;;;;;;;6319796;28;20256;-58
2023/05/25 15:50:56;;;;;;;5.07;4.57;;;;;;;;;;6336322;27;20257;-58
2023/05/25 15:53:57;;;;;;;5.30;4.80;;;;;;;;;;6331111;27;20232;-58
2023/05/25 15:56:58;;;;;;;4.70;4.30;;;;;;;;;;6332013;27;20244;-57
2023/05/25 15:59:59;;;;;;;5.20;4.23;;;;;;;;;;6336262;27;20210;-57
2023/05/25 16:03:01;;;;;;;6.07;4.57;;;;;;;;;;6330159;27;20240;-57
2023/05/25 16:06:02;;;;;;;4.97;4.47;;;;;;;;;;6328164;27;20191;-58
2023/05/25 16:09:03;;;;;;;4.87;4.47;;;;;;;;;;6332852;28;20203;-58
2023/05/25 16:12:05;;;;;;;5.77;5.17;;;;;;;;;;6334200;27;20357;-58
2023/05/25 16:15:06;;;;;;;8.63;4.77;;;;;;;;;;6327984;27;20188;-57
2023/05/25 16:18:08;;;;;;;5.30;4.53;;;;;;;;;;6341828;27;20190;-58
2023/05/25 16:21:09;;;;;;;7.03;4.43;;;;;;;;;;6320877;27;20188;-58
2023/05/25 16:24:10;;;;;;;5.37;4.77;;;;;;;;;;6329042;28;20206;-58
2023/05/25 16:27:11;;;;;;;5.07;4.43;;;;;;;;;;6333335;27;20199;-58
2023/05/25 16:30:12;;;;;;;5.27;4.60;;;;;;;;;;6332014;27;20239;-58
2023/05/25 16:33:13;;;;;;;4.90;4.50;;;;;;;;;;6329629;27;20199;-58
2023/05/25 16:36:15;;;;;;;5.47;4.40;;;;;;;;;;6353812;27;20191;-58
2023/05/25 16:39:16;;;;;;;5.20;4.40;;;;;;;;;;6344880;27;20179;-58
2023/05/25 16:42:18;;;;;;;4.87;4.43;;;;;;;;;;6336273;27;20217;-58
2023/05/25 16:45:19;;;;;;;5.77;4.70;;;;;;;;;;6339048;27;20190;-58
2023/05/25 16:48:20;;;;;;;7.47;4.93;;;;;;;;;;6330576;27;20196;-58
2023/05/25 16:51:21;;;;;;;5.07;4.67;;;;;;;;;;6336350;27;20237;-58
2023/05/25 16:54:22;;;;;;;5.17;4.67;;;;;;;;;;6323958;28;20188;-58
2023/05/25 16:57:24;;;;;;;5.70;4.47;;;;;;;;;;6347008;27;20178;-58
2023/05/25 17:00:25;;;;;;;5.03;4.30;;;;;;;;;;6354062;27;20210;-59
2023/05/25 17:03:26;;;;;;;5.70;4.70;;;;;;;;;;6326984;28;20199;-58
2023/05/25 17:06:27;;;;;;;6.50;4.40;;;;;;;;;;6320351;27;20191;-58
2023/05/25 17:09:28;;;;;;;5.63;5.00;;;;;;;;;;6322448;27;20197;-59
2023/05/25 17:12:29;;;;;;;6.03;5.40;;;;;;;;;;6327560;27;20223;-59
2023/05/25 17:15:30;;;;;;;5.23;4.73;;;;;;;;;;6332574;27;20187;-59
2023/05/25 17:18:31;;;;;;;7.03;4.97;;;;;;;;;;6336422;27;20273;-59
2023/05/25 17:21:33;;;;;;;6.97;5.03;;;;;;;;;;6340040;27;20244;-59
2023/05/25 17:24:34;;;;;;;6.37;4.90;;;;;;;;;;6328202;27;20222;-59
2023/05/25 17:27:35;;;;;;;5.40;4.87;;;;;;;;;;6337033;27;20195;-59
2023/05/25 17:30:36;;;;;;;7.17;5.17;;;;;;;;;;6314924;28;20207;-58
2023/05/25 17:33:38;;;;;;;5.33;4.87;;;;;;;;;;6329965;27;20192;-58
2023/05/25 17:36:39;;;;;;;5.43;4.80;;;;;;;;;;6331377;27;20194;-58
2023/05/25 17:39:41;;;;;;;6.53;5.83;;;;;;;;;;6330433;27;20278;-59
2023/05/25 17:42:44;;;;;;;7.40;5.20;;;;;;;;;;6330502;27;20194;-59
2023/05/25 17:45:45;;;;;;;6.97;5.67;;;;;;;;;;6344586;27;20195;-60
2023/05/25 17:48:46;;;;;;;7.40;5.20;;;;;;;;;;6327539;28;20190;-58
2023/05/25 17:51:47;;;;;;;5.90;5.07;;;;;;;;;;6326239;28;20293;-58
2023/05/25 17:54:48;;;;;;;7.20;5.17;;;;;;;;;;6333856;27;20182;-58